sensor_id;sensor_type;location;lat;lon;timestamp;pressure;altitude;pressure_sealevel;temperature;humidity
79589;BME280;69067;51.930;4.492;2023-06-14T00:00:51;101457.31;;;28.55;30.96
79589;BME280;69067;51.930;4.492;2023-06-14T00:03:18;101467.44;;;28.54;31.07
79589;BME280;69067;51.930;4.492;2023-06-14T00:05:45;101463.44;;;28.50;31.00
79589;BME280;69067;51.930;4.492;2023-06-14T00:08:14;101473.97;;;28.53;31.41
79589;BME280;69067;51.930;4.492;2023-06-14T00:10:40;101476.50;;;28.55;31.58
79589;BME280;69067;51.930;4.492;2023-06-14T00:13:08;101478.13;;;28.56;30.94
79589;BME280;69067;51.930;4.492;2023-06-14T00:15:35;101476.72;;;28.53;31.26
79589;BME280;69067;51.930;4.492;2023-06-14T00:18:01;101486.22;;;28.51;31.32
79589;BME280;69067;51.930;4.492;2023-06-14T00:20:29;101476.72;;;28.53;31.02
79589;BME280;69067;51.930;4.492;2023-06-14T00:23:02;101485.16;;;28.52;31.44
79589;BME280;69067;51.930;4.492;2023-06-14T00:25:28;101478.81;;;28.51;31.43
79589;BME280;69067;51.930;4.492;2023-06-14T00:27:55;101473.81;;;28.48;31.19
79589;BME280;69067;51.930;4.492;2023-06-14T00:30:21;101481.78;;;28.50;31.30
79589;BME280;69067;51.930;4.492;2023-06-14T00:32:47;101484.09;;;28.53;31.98
79589;BME280;69067;51.930;4.492;2023-06-14T00:35:14;101477.06;;;28.57;31.38
79589;BME280;69067;51.930;4.492;2023-06-14T00:37:40;101478.59;;;28.53;31.09
79589;BME280;69067;51.930;4.492;2023-06-14T00:40:06;101481.78;;;28.50;31.01
79589;BME280;69067;51.930;4.492;2023-06-14T00:42:33;101473.19;;;28.46;31.24
79589;BME280;69067;51.930;4.492;2023-06-14T00:44:59;101477.00;;;28.45;31.57
79589;BME280;69067;51.930;4.492;2023-06-14T00:47:26;101480.34;;;28.47;31.06
79589;BME280;69067;51.930;4.492;2023-06-14T00:49:53;101479.88;;;28.50;31.32
79589;BME280;69067;51.930;4.492;2023-06-14T00:52:20;101482.63;;;28.50;31.49
79589;BME280;69067;51.930;4.492;2023-06-14T00:54:49;101483.09;;;28.47;31.59
79589;BME280;69067;51.930;4.492;2023-06-14T00:57:16;101477.22;;;28.44;31.53
79589;BME280;69067;51.930;4.492;2023-06-14T00:59:44;101466.81;;;28.52;31.78
79589;BME280;69067;51.930;4.492;2023-06-14T01:02:14;101475.09;;;28.46;31.58
79589;BME280;69067;51.930;4.492;2023-06-14T01:04:46;101467.72;;;28.46;31.75
79589;BME280;69067;51.930;4.492;2023-06-14T01:07:45;101472.97;;;28.48;31.67
79589;BME280;69067;51.930;4.492;2023-06-14T01:13:23;101471.72;;;28.44;32.24
79589;BME280;69067;51.930;4.492;2023-06-14T01:15:55;101469.47;;;28.41;31.83
79589;BME280;69067;51.930;4.492;2023-06-14T01:18:22;101474.47;;;28.44;31.58
79589;BME280;69067;51.930;4.492;2023-06-14T01:20:50;101471.59;;;28.39;31.94
79589;BME280;69067;51.930;4.492;2023-06-14T01:23:20;101469.22;;;28.42;31.96
79589;BME280;69067;51.930;4.492;2023-06-14T01:25:48;101480.78;;;28.44;31.99
79589;BME280;69067;51.930;4.492;2023-06-14T01:28:19;101476.16;;;28.45;31.89
79589;BME280;69067;51.930;4.492;2023-06-14T01:30:50;101476.38;;;28.43;32.41
79589;BME280;69067;51.930;4.492;2023-06-14T01:33:26;101464.81;;;28.41;32.12
79589;BME280;69067;51.930;4.492;2023-06-14T01:35:54;101469.22;;;28.42;31.92
79589;BME280;69067;51.930;4.492;2023-06-14T01:38:27;101467.56;;;28.41;31.73
79589;BME280;69067;51.930;4.492;2023-06-14T01:40:56;101464.13;;;28.46;32.16
79589;BME280;69067;51.930;4.492;2023-06-14T01:43:25;101464.56;;;28.43;31.98
79589;BME280;69067;51.930;4.492;2023-06-14T01:45:54;101473.03;;;28.41;31.97
79589;BME280;69067;51.930;4.492;2023-06-14T01:48:22;101459.78;;;28.38;31.82
79589;BME280;69067;51.930;4.492;2023-06-14T01:50:49;101473.88;;;28.42;31.93
79589;BME280;69067;51.930;4.492;2023-06-14T01:53:16;101464.88;;;28.35;31.67
79589;BME280;69067;51.930;4.492;2023-06-14T01:55:42;101470.75;;;28.38;31.38
79589;BME280;69067;51.930;4.492;2023-06-14T01:58:10;101465.88;;;28.40;31.33
79589;BME280;69067;51.930;4.492;2023-06-14T02:00:36;101473.63;;;28.43;31.87
79589;BME280;69067;51.930;4.492;2023-06-14T02:03:02;101465.66;;;28.42;31.67
79589;BME280;69067;51.930;4.492;2023-06-14T02:05:30;101468.44;;;28.35;31.49
79589;BME280;69067;51.930;4.492;2023-06-14T02:07:56;101468.84;;;28.39;31.77
79589;BME280;69067;51.930;4.492;2023-06-14T02:10:23;101465.47;;;28.37;31.46
79589;BME280;69067;51.930;4.492;2023-06-14T02:12:48;101465.09;;;28.33;31.76
79589;BME280;69067;51.930;4.492;2023-06-14T02:15:15;101467.31;;;28.43;31.42
79589;BME280;69067;51.930;4.492;2023-06-14T02:17:48;101474.09;;;28.40;31.22
79589;BME280;69067;51.930;4.492;2023-06-14T02:20:15;101465.69;;;28.35;31.66
79589;BME280;69067;51.930;4.492;2023-06-14T02:22:41;101475.22;;;28.33;31.70
79589;BME280;69067;51.930;4.492;2023-06-14T02:25:08;101472.28;;;28.34;31.19
79589;BME280;69067;51.930;4.492;2023-06-14T02:27:34;101473.47;;;28.38;31.16
79589;BME280;69067;51.930;4.492;2023-06-14T02:30:00;101474.75;;;28.36;31.18
79589;BME280;69067;51.930;4.492;2023-06-14T02:32:26;101471.78;;;28.37;31.51
79589;BME280;69067;51.930;4.492;2023-06-14T02:34:53;101473.53;;;28.32;31.76
79589;BME280;69067;51.930;4.492;2023-06-14T02:37:20;101479.47;;;28.29;31.36
79589;BME280;69067;51.930;4.492;2023-06-14T02:39:45;101482.38;;;28.34;31.33
79589;BME280;69067;51.930;4.492;2023-06-14T02:42:11;101481.53;;;28.33;31.53
79589;BME280;69067;51.930;4.492;2023-06-14T02:44:37;101480.41;;;28.41;31.40
79589;BME280;69067;51.930;4.492;2023-06-14T02:47:04;101475.16;;;28.39;30.72
79589;BME280;69067;51.930;4.492;2023-06-14T02:49:30;101470.66;;;28.27;31.50
79589;BME280;69067;51.930;4.492;2023-06-14T02:51:56;101470.38;;;28.35;30.95
79589;BME280;69067;51.930;4.492;2023-06-14T02:54:22;101479.88;;;28.32;31.04
79589;BME280;69067;51.930;4.492;2023-06-14T02:56:48;101478.81;;;28.33;31.79
79589;BME280;69067;51.930;4.492;2023-06-14T02:59:13;101483.44;;;28.33;31.11
79589;BME280;69067;51.930;4.492;2023-06-14T03:01:40;101484.94;;;28.29;30.98
79589;BME280;69067;51.930;4.492;2023-06-14T03:04:09;101478.47;;;28.23;31.24
79589;BME280;69067;51.930;4.492;2023-06-14T03:06:35;101485.56;;;28.31;30.98
79589;BME280;69067;51.930;4.492;2023-06-14T03:09:03;101486.19;;;28.33;31.10
79589;BME280;69067;51.930;4.492;2023-06-14T03:11:32;101484.94;;;28.29;31.06
79589;BME280;69067;51.930;4.492;2023-06-14T03:13:58;101493.16;;;28.29;30.56
79589;BME280;69067;51.930;4.492;2023-06-14T03:16:24;101497.81;;;28.28;30.97
79589;BME280;69067;51.930;4.492;2023-06-14T03:18:51;101496.72;;;28.29;31.10
79589;BME280;69067;51.930;4.492;2023-06-14T03:21:20;101500.09;;;28.31;30.60
79589;BME280;69067;51.930;4.492;2023-06-14T03:23:47;101503.94;;;28.24;30.75
79589;BME280;69067;51.930;4.492;2023-06-14T03:26:14;101512.00;;;28.18;31.07
79589;BME280;69067;51.930;4.492;2023-06-14T03:28:46;101515.31;;;28.27;30.77
79589;BME280;69067;51.930;4.492;2023-06-14T03:31:14;101506.31;;;28.20;30.98
79589;BME280;69067;51.930;4.492;2023-06-14T03:33:42;101512.38;;;28.22;30.69
79589;BME280;69067;51.930;4.492;2023-06-14T03:36:08;101515.06;;;28.29;30.57
79589;BME280;69067;51.930;4.492;2023-06-14T03:38:33;101520.00;;;28.20;30.99
79589;BME280;69067;51.930;4.492;2023-06-14T03:41:00;101522.75;;;28.20;31.43
79589;BME280;69067;51.930;4.492;2023-06-14T03:43:26;101519.50;;;28.30;30.98
79589;BME280;69067;51.930;4.492;2023-06-14T03:45:52;101522.69;;;28.27;30.67
79589;BME280;69067;51.930;4.492;2023-06-14T03:48:18;101521.22;;;28.24;31.57
79589;BME280;69067;51.930;4.492;2023-06-14T03:50:43;101523.34;;;28.22;31.21
79589;BME280;69067;51.930;4.492;2023-06-14T03:53:10;101523.28;;;28.29;31.15
79589;BME280;69067;51.930;4.492;2023-06-14T03:55:36;101525.22;;;28.21;31.77
79589;BME280;69067;51.930;4.492;2023-06-14T03:58:03;101523.97;;;28.24;31.43
79589;BME280;69067;51.930;4.492;2023-06-14T04:00:29;101528.03;;;28.15;31.71
79589;BME280;69067;51.930;4.492;2023-06-14T04:02:55;101526.31;;;28.20;31.87
79589;BME280;69067;51.930;4.492;2023-06-14T04:05:21;101523.59;;;28.20;31.20
79589;BME280;69067;51.930;4.492;2023-06-14T04:07:47;101524.22;;;28.16;31.60
79589;BME280;69067;51.930;4.492;2023-06-14T04:10:15;101534.13;;;28.17;32.13
79589;BME280;69067;51.930;4.492;2023-06-14T04:12:42;101535.19;;;28.16;31.34
79589;BME280;69067;51.930;4.492;2023-06-14T04:15:09;101535.81;;;28.18;30.94
79589;BME280;69067;51.930;4.492;2023-06-14T04:17:36;101546.97;;;28.16;31.44
79589;BME280;69067;51.930;4.492;2023-06-14T04:20:02;101543.63;;;28.14;31.94
79589;BME280;69067;51.930;4.492;2023-06-14T04:22:31;101537.09;;;28.09;31.73
79589;BME280;69067;51.930;4.492;2023-06-14T04:24:57;101547.19;;;28.15;32.21
79589;BME280;69067;51.930;4.492;2023-06-14T04:27:26;101546.41;;;28.01;31.59
79589;BME280;69067;51.930;4.492;2023-06-14T04:29:52;101542.38;;;28.10;31.51
79589;BME280;69067;51.930;4.492;2023-06-14T04:32:29;101553.72;;;28.14;31.37
79589;BME280;69067;51.930;4.492;2023-06-14T04:34:55;101550.38;;;28.12;32.01
79589;BME280;69067;51.930;4.492;2023-06-14T04:37:22;101538.97;;;28.15;31.44
79589;BME280;69067;51.930;4.492;2023-06-14T04:39:49;101540.31;;;28.06;31.72
79589;BME280;69067;51.930;4.492;2023-06-14T04:42:15;101542.38;;;28.10;31.53
79589;BME280;69067;51.930;4.492;2023-06-14T04:44:43;101545.16;;;28.04;32.16
79589;BME280;69067;51.930;4.492;2023-06-14T04:47:12;101556.72;;;28.06;31.96
79589;BME280;69067;51.930;4.492;2023-06-14T04:49:39;101542.81;;;28.07;31.99
79589;BME280;69067;51.930;4.492;2023-06-14T04:52:06;101532.97;;;28.00;31.88
79589;BME280;69067;51.930;4.492;2023-06-14T04:54:33;101547.47;;;28.07;31.57
79589;BME280;69067;51.930;4.492;2023-06-14T04:56:59;101545.31;;;28.09;31.55
79589;BME280;69067;51.930;4.492;2023-06-14T04:59:26;101546.56;;;28.13;31.11
79589;BME280;69067;51.930;4.492;2023-06-14T05:01:51;101550.59;;;28.10;31.38
79589;BME280;69067;51.930;4.492;2023-06-14T05:04:19;101557.94;;;28.10;31.43
79589;BME280;69067;51.930;4.492;2023-06-14T05:06:45;101548.72;;;28.04;31.68
79589;BME280;69067;51.930;4.492;2023-06-14T05:09:14;101556.31;;;28.02;31.80
79589;BME280;69067;51.930;4.492;2023-06-14T05:11:41;101558.22;;;28.02;31.63
79589;BME280;69067;51.930;4.492;2023-06-14T05:14:13;101557.56;;;28.06;32.54
79589;BME280;69067;51.930;4.492;2023-06-14T05:16:40;101561.16;;;28.07;31.12
79589;BME280;69067;51.930;4.492;2023-06-14T05:19:06;101568.56;;;28.00;31.46
79589;BME280;69067;51.930;4.492;2023-06-14T05:21:32;101561.00;;;27.95;31.93
79589;BME280;69067;51.930;4.492;2023-06-14T05:24:00;101563.09;;;28.00;31.66
79589;BME280;69067;51.930;4.492;2023-06-14T05:26:26;101565.84;;;28.00;31.85
79589;BME280;69067;51.930;4.492;2023-06-14T05:28:56;101560.19;;;27.88;31.56
79589;BME280;69067;51.930;4.492;2023-06-14T05:31:25;101574.03;;;28.00;32.17
79589;BME280;69067;51.930;4.492;2023-06-14T05:33:51;101570.22;;;28.07;31.97
79589;BME280;69067;51.930;4.492;2023-06-14T05:36:19;101570.69;;;27.98;31.91
79589;BME280;69067;51.930;4.492;2023-06-14T05:38:46;101576.31;;;28.03;31.99
79589;BME280;69067;51.930;4.492;2023-06-14T05:41:12;101566.88;;;27.99;32.08
79589;BME280;69067;51.930;4.492;2023-06-14T05:43:38;101567.09;;;27.97;31.53
79589;BME280;69067;51.930;4.492;2023-06-14T05:46:04;101569.63;;;27.99;31.97
79589;BME280;69067;51.930;4.492;2023-06-14T05:48:30;101576.78;;;28.00;32.10
79589;BME280;69067;51.930;4.492;2023-06-14T05:50:56;101576.38;;;27.96;31.62
79589;BME280;69067;51.930;4.492;2023-06-14T05:53:22;101571.78;;;27.90;31.39
79589;BME280;69067;51.930;4.492;2023-06-14T05:55:48;101577.88;;;27.92;31.84
79589;BME280;69067;51.930;4.492;2023-06-14T05:58:17;101579.78;;;27.92;31.62
79589;BME280;69067;51.930;4.492;2023-06-14T06:00:42;101579.31;;;27.95;31.87
79589;BME280;69067;51.930;4.492;2023-06-14T06:03:08;101574.91;;;27.94;31.58
79589;BME280;69067;51.930;4.492;2023-06-14T06:05:34;101573.88;;;27.88;32.17
79589;BME280;69067;51.930;4.492;2023-06-14T06:08:00;101573.00;;;27.94;31.37
79589;BME280;69067;51.930;4.492;2023-06-14T06:10:26;101569.47;;;27.87;31.58
79589;BME280;69067;51.930;4.492;2023-06-14T06:12:51;101579.94;;;27.97;31.56
79589;BME280;69067;51.930;4.492;2023-06-14T06:15:20;101578.25;;;27.96;31.47
79589;BME280;69067;51.930;4.492;2023-06-14T06:17:47;101585.84;;;27.94;31.73
79589;BME280;69067;51.930;4.492;2023-06-14T06:20:12;101585.84;;;27.94;31.36
79589;BME280;69067;51.930;4.492;2023-06-14T06:22:38;101586.06;;;27.99;31.01
79589;BME280;69067;51.930;4.492;2023-06-14T06:25:04;101587.53;;;27.95;31.39
79589;BME280;69067;51.930;4.492;2023-06-14T06:27:32;101595.06;;;28.06;30.75
79589;BME280;69067;51.930;4.492;2023-06-14T06:29:58;101594.66;;;28.02;30.44
79589;BME280;69067;51.930;4.492;2023-06-14T06:32:24;101596.50;;;28.08;29.89
79589;BME280;69067;51.930;4.492;2023-06-14T06:34:50;101590.84;;;28.03;30.19
79589;BME280;69067;51.930;4.492;2023-06-14T06:37:17;101593.81;;;28.02;29.94
79589;BME280;69067;51.930;4.492;2023-06-14T06:39:42;101591.47;;;28.05;29.98
79589;BME280;69067;51.930;4.492;2023-06-14T06:42:09;101592.59;;;27.98;29.20
79589;BME280;69067;51.930;4.492;2023-06-14T06:44:34;101595.53;;;27.96;29.07
79589;BME280;69067;51.930;4.492;2023-06-14T06:47:00;101600.78;;;27.98;29.42
79589;BME280;69067;51.930;4.492;2023-06-14T06:49:26;101595.75;;;27.95;29.77
79589;BME280;69067;51.930;4.492;2023-06-14T06:51:59;101608.56;;;28.01;29.26
79589;BME280;69067;51.930;4.492;2023-06-14T06:54:29;101609.47;;;27.88;30.06
79589;BME280;69067;51.930;4.492;2023-06-14T06:56:55;101600.84;;;27.91;29.49
79589;BME280;69067;51.930;4.492;2023-06-14T06:59:21;101614.38;;;27.79;30.60
79589;BME280;69067;51.930;4.492;2023-06-14T07:01:46;101617.50;;;27.83;30.58
79589;BME280;69067;51.930;4.492;2023-06-14T07:04:13;101614.13;;;27.81;30.61
79589;BME280;69067;51.930;4.492;2023-06-14T07:06:39;101614.41;;;27.66;31.35
79589;BME280;69067;51.930;4.492;2023-06-14T07:09:05;101626.16;;;27.73;31.38
79589;BME280;69067;51.930;4.492;2023-06-14T07:11:33;101616.72;;;27.69;31.10
79589;BME280;69067;51.930;4.492;2023-06-14T07:13:59;101624.69;;;27.77;30.90
79589;BME280;69067;51.930;4.492;2023-06-14T07:16:25;101630.56;;;27.81;31.34
79589;BME280;69067;51.930;4.492;2023-06-14T07:18:51;101623.41;;;27.87;31.27
79589;BME280;69067;51.930;4.492;2023-06-14T07:21:17;101629.28;;;27.83;30.99
79589;BME280;69067;51.930;4.492;2023-06-14T07:23:43;101627.81;;;27.81;31.01
79589;BME280;69067;51.930;4.492;2023-06-14T07:26:09;101627.19;;;27.86;31.04
79589;BME280;69067;51.930;4.492;2023-06-14T07:28:36;101630.19;;;27.71;31.25
79589;BME280;69067;51.930;4.492;2023-06-14T07:31:01;101632.66;;;27.86;30.78
79589;BME280;69067;51.930;4.492;2023-06-14T07:33:28;101625.91;;;27.88;30.73
79589;BME280;69067;51.930;4.492;2023-06-14T07:35:54;101630.34;;;27.82;31.05
79589;BME280;69067;51.930;4.492;2023-06-14T07:38:20;101633.53;;;27.79;30.80
79589;BME280;69067;51.930;4.492;2023-06-14T07:40:46;101642.13;;;27.83;31.34
79589;BME280;69067;51.930;4.492;2023-06-14T07:43:12;101638.56;;;27.82;31.03
79589;BME280;69067;51.930;4.492;2023-06-14T07:45:38;101649.97;;;27.79;30.87
79589;BME280;69067;51.930;4.492;2023-06-14T07:48:04;101647.00;;;27.74;30.80
79589;BME280;69067;51.930;4.492;2023-06-14T07:50:30;101649.16;;;27.72;30.62
79589;BME280;69067;51.930;4.492;2023-06-14T07:52:56;101646.16;;;27.74;31.18
79589;BME280;69067;51.930;4.492;2023-06-14T07:55:21;101645.09;;;27.81;30.54
79589;BME280;69067;51.930;4.492;2023-06-14T07:57:47;101647.00;;;27.74;30.16
79589;BME280;69067;51.930;4.492;2023-06-14T08:00:13;101657.34;;;27.72;30.01
79589;BME280;69067;51.930;4.492;2023-06-14T08:02:44;101653.81;;;27.65;30.19
79589;BME280;69067;51.930;4.492;2023-06-14T08:05:11;101652.94;;;27.71;30.48
79589;BME280;69067;51.930;4.492;2023-06-14T08:07:38;101647.06;;;27.61;29.61
79589;BME280;69067;51.930;4.492;2023-06-14T08:10:05;101657.38;;;27.66;30.71
79589;BME280;69067;51.930;4.492;2023-06-14T08:12:32;101652.53;;;27.61;30.26
79589;BME280;69067;51.930;4.492;2023-06-14T08:14:59;101652.13;;;27.64;30.45
79589;BME280;69067;51.930;4.492;2023-06-14T08:17:25;101648.75;;;27.62;30.53
79589;BME280;69067;51.930;4.492;2023-06-14T08:19:52;101657.59;;;27.64;29.90
79589;BME280;69067;51.930;4.492;2023-06-14T08:22:20;101653.59;;;27.54;31.00
79589;BME280;69067;51.930;4.492;2023-06-14T08:24:47;101655.47;;;27.66;30.08
79589;BME280;69067;51.930;4.492;2023-06-14T08:27:13;101660.50;;;27.69;30.82
79589;BME280;69067;51.930;4.492;2023-06-14T08:29:38;101667.06;;;27.62;30.81
79589;BME280;69067;51.930;4.492;2023-06-14T08:32:06;101649.16;;;27.59;30.38
79589;BME280;69067;51.930;4.492;2023-06-14T08:34:32;101660.94;;;27.66;29.85
79589;BME280;69067;51.930;4.492;2023-06-14T08:36:58;101660.56;;;27.56;30.12
79589;BME280;69067;51.930;4.492;2023-06-14T08:39:23;101660.97;;;27.40;30.49
79589;BME280;69067;51.930;4.492;2023-06-14T08:41:52;101656.13;;;27.55;30.74
79589;BME280;69067;51.930;4.492;2023-06-14T08:44:18;101654.63;;;27.59;30.45
79589;BME280;69067;51.930;4.492;2023-06-14T08:46:44;101656.72;;;27.70;30.32
79589;BME280;69067;51.930;4.492;2023-06-14T08:49:12;101666.22;;;27.61;29.86
79589;BME280;69067;51.930;4.492;2023-06-14T08:51:38;101669.16;;;27.47;30.35
79589;BME280;69067;51.930;4.492;2023-06-14T08:54:07;101647.94;;;27.55;30.14
79589;BME280;69067;51.930;4.492;2023-06-14T08:56:33;101663.94;;;27.58;30.15
79589;BME280;69067;51.930;4.492;2023-06-14T08:59:02;101661.81;;;27.47;30.96
79589;BME280;69067;51.930;4.492;2023-06-14T09:01:36;101659.06;;;27.60;29.93
79589;BME280;69067;51.930;4.492;2023-06-14T09:04:03;101654.63;;;27.59;30.39
79589;BME280;69067;51.930;4.492;2023-06-14T09:06:31;101661.19;;;27.52;30.71
79589;BME280;69067;51.930;4.492;2023-06-14T09:08:58;101659.94;;;27.54;30.03
79589;BME280;69067;51.930;4.492;2023-06-14T09:11:24;101665.59;;;27.66;30.15
79589;BME280;69067;51.930;4.492;2023-06-14T09:13:51;101657.16;;;27.61;29.77
79589;BME280;69067;51.930;4.492;2023-06-14T09:16:17;101660.75;;;27.61;29.45
79589;BME280;69067;51.930;4.492;2023-06-14T09:18:45;101658.88;;;27.55;29.96
79589;BME280;69067;51.930;4.492;2023-06-14T09:21:17;101669.81;;;27.55;29.88
79589;BME280;69067;51.930;4.492;2023-06-14T09:23:45;101669.13;;;27.66;29.80
79589;BME280;69067;51.930;4.492;2023-06-14T09:26:17;101668.13;;;27.54;30.72
79589;BME280;69067;51.930;4.492;2023-06-14T09:28:47;101668.94;;;27.61;30.30
79589;BME280;69067;51.930;4.492;2023-06-14T09:31:18;101667.66;;;27.70;30.44
79589;BME280;69067;51.930;4.492;2023-06-14T09:33:46;101666.41;;;27.66;29.54
79589;BME280;69067;51.930;4.492;2023-06-14T09:36:23;101682.44;;;27.63;30.37
79589;BME280;69067;51.930;4.492;2023-06-14T09:39:02;101668.53;;;27.64;30.08
79589;BME280;69067;51.930;4.492;2023-06-14T09:41:34;101675.28;;;27.62;30.35
79589;BME280;69067;51.930;4.492;2023-06-14T09:44:03;101686.19;;;27.68;30.00
79589;BME280;69067;51.930;4.492;2023-06-14T09:46:30;101674.38;;;27.74;29.76
79589;BME280;69067;51.930;4.492;2023-06-14T09:48:57;101680.09;;;27.66;30.33
79589;BME280;69067;51.930;4.492;2023-06-14T09:51:24;101684.13;;;27.64;29.58
79589;BME280;69067;51.930;4.492;2023-06-14T09:53:51;101682.59;;;27.74;29.60
79589;BME280;69067;51.930;4.492;2023-06-14T09:56:23;101677.13;;;27.74;30.05
79589;BME280;69067;51.930;4.492;2023-06-14T09:58:55;101678.16;;;27.73;30.14
79589;BME280;69067;51.930;4.492;2023-06-14T10:01:27;101676.69;;;27.77;29.79
79589;BME280;69067;51.930;4.492;2023-06-14T10:04:06;101678.38;;;27.78;29.57
79589;BME280;69067;51.930;4.492;2023-06-14T10:06:37;101683.00;;;27.78;29.61
79589;BME280;69067;51.930;4.492;2023-06-14T10:09:08;101676.25;;;27.80;28.13
79589;BME280;69067;51.930;4.492;2023-06-14T10:11:36;101670.19;;;27.72;28.26
79589;BME280;69067;51.930;4.492;2023-06-14T10:14:05;101678.59;;;27.77;28.41
79589;BME280;69067;51.930;4.492;2023-06-14T10:16:37;101676.88;;;27.82;28.07
79589;BME280;69067;51.930;4.492;2023-06-14T10:22:11;101678.94;;;27.94;28.03
79589;BME280;69067;51.930;4.492;2023-06-14T10:24:44;101681.06;;;27.92;27.78
79589;BME280;69067;51.930;4.492;2023-06-14T10:27:14;101683.63;;;27.80;28.06
79589;BME280;69067;51.930;4.492;2023-06-14T10:32:18;101672.22;;;27.90;27.60
79589;BME280;69067;51.930;4.492;2023-06-14T10:35:05;101667.59;;;27.90;27.77
79589;BME280;69067;51.930;4.492;2023-06-14T10:37:32;101671.22;;;27.77;28.27
79589;BME280;69067;51.930;4.492;2023-06-14T10:39:58;101678.16;;;27.87;27.94
79589;BME280;69067;51.930;4.492;2023-06-14T10:42:31;101673.97;;;27.77;27.50
79589;BME280;69067;51.930;4.492;2023-06-14T10:44:58;101679.63;;;27.82;28.03
79589;BME280;69067;51.930;4.492;2023-06-14T10:52:28;101673.09;;;27.83;27.31
79589;BME280;69067;51.930;4.492;2023-06-14T10:57:36;101681.97;;;27.79;28.10
79589;BME280;69067;51.930;4.492;2023-06-14T11:00:05;101670.16;;;27.85;27.29
79589;BME280;69067;51.930;4.492;2023-06-14T11:05:29;101670.56;;;27.82;26.92
79589;BME280;69067;51.930;4.492;2023-06-14T11:10:54;101670.28;;;27.97;27.12
79589;BME280;69067;51.930;4.492;2023-06-14T11:13:26;101672.22;;;27.90;26.71
79589;BME280;69067;51.930;4.492;2023-06-14T11:15:52;101677.03;;;27.94;26.66
79589;BME280;69067;51.930;4.492;2023-06-14T11:18:21;101661.50;;;27.81;27.11
79589;BME280;69067;51.930;4.492;2023-06-14T11:20:50;101672.84;;;27.92;26.65
79589;BME280;69067;51.930;4.492;2023-06-14T11:23:16;101663.13;;;27.96;27.27
79589;BME280;69067;51.930;4.492;2023-06-14T11:25:42;101661.47;;;27.88;26.55
79589;BME280;69067;51.930;4.492;2023-06-14T11:28:08;101658.25;;;28.04;26.75
79589;BME280;69067;51.930;4.492;2023-06-14T11:30:34;101673.03;;;27.97;26.64
79589;BME280;69067;51.930;4.492;2023-06-14T11:33:00;101657.41;;;28.04;27.09
79589;BME280;69067;51.930;4.492;2023-06-14T11:35:26;101653.19;;;28.01;27.24
79589;BME280;69067;51.930;4.492;2023-06-14T11:37:56;101650.50;;;27.95;25.75
79589;BME280;69067;51.930;4.492;2023-06-14T11:40:26;101665.03;;;27.95;26.30
79589;BME280;69067;51.930;4.492;2023-06-14T11:43:01;101640.47;;;27.82;26.21
79589;BME280;69067;51.930;4.492;2023-06-14T11:45:28;101642.78;;;27.85;26.60
79589;BME280;69067;51.930;4.492;2023-06-14T11:47:56;101655.78;;;27.90;26.71
79589;BME280;69067;51.930;4.492;2023-06-14T11:50:23;101652.66;;;27.86;27.05
79589;BME280;69067;51.930;4.492;2023-06-14T11:52:56;101653.69;;;27.92;27.50
79589;BME280;69067;51.930;4.492;2023-06-14T11:55:24;101658.28;;;27.98;27.43
79589;BME280;69067;51.930;4.492;2023-06-14T11:57:50;101661.03;;;27.98;26.34
79589;BME280;69067;51.930;4.492;2023-06-14T12:00:17;101659.28;;;28.10;27.33
79589;BME280;69067;51.930;4.492;2023-06-14T12:02:43;101646.03;;;28.07;27.70
79589;BME280;69067;51.930;4.492;2023-06-14T12:05:21;101650.03;;;28.04;27.35
79589;BME280;69067;51.930;4.492;2023-06-14T12:07:46;101653.38;;;28.13;27.63
79589;BME280;69067;51.930;4.492;2023-06-14T12:10:13;101663.31;;;28.01;27.40
79589;BME280;69067;51.930;4.492;2023-06-14T12:12:42;101652.34;;;28.01;26.65
79589;BME280;69067;51.930;4.492;2023-06-14T12:15:09;101655.56;;;27.98;27.72
79589;BME280;69067;51.930;4.492;2023-06-14T12:17:39;101651.97;;;27.97;26.78
79589;BME280;69067;51.930;4.492;2023-06-14T12:20:13;101654.06;;;27.95;27.19
79589;BME280;69067;51.930;4.492;2023-06-14T12:25:32;101654.84;;;28.09;27.68
79589;BME280;69067;51.930;4.492;2023-06-14T12:28:04;101658.91;;;28.00;27.72
79589;BME280;69067;51.930;4.492;2023-06-14T12:30:32;101653.56;;;28.18;27.72
79589;BME280;69067;51.930;4.492;2023-06-14T12:32:58;101657.19;;;28.05;27.96
79589;BME280;69067;51.930;4.492;2023-06-14T12:35:23;101648.56;;;28.02;28.13
79589;BME280;69067;51.930;4.492;2023-06-14T12:37:49;101666.84;;;28.08;28.01
79589;BME280;69067;51.930;4.492;2023-06-14T12:40:15;101659.28;;;28.10;29.09
79589;BME280;69067;51.930;4.492;2023-06-14T12:42:41;101641.38;;;28.14;28.17
79589;BME280;69067;51.930;4.492;2023-06-14T12:45:07;101661.59;;;28.13;28.35
79589;BME280;69067;51.930;4.492;2023-06-14T12:47:33;101651.94;;;28.04;28.35
79589;BME280;69067;51.930;4.492;2023-06-14T12:49:59;101650.66;;;28.06;28.01
79589;BME280;69067;51.930;4.492;2023-06-14T12:52:25;101653.78;;;28.10;28.78
79589;BME280;69067;51.930;4.492;2023-06-14T12:54:51;101650.53;;;28.33;28.09
79589;BME280;69067;51.930;4.492;2023-06-14T12:57:17;101641.78;;;28.17;27.68
79589;BME280;69067;51.930;4.492;2023-06-14T12:59:43;101635.47;;;28.17;27.84
79589;BME280;69067;51.930;4.492;2023-06-14T13:02:17;101647.63;;;28.28;27.58
79589;BME280;69067;51.930;4.492;2023-06-14T13:04:43;101641.56;;;28.19;26.33
79589;BME280;69067;51.930;4.492;2023-06-14T13:07:09;101646.31;;;28.30;26.31
79589;BME280;69067;51.930;4.492;2023-06-14T13:09:38;101645.09;;;28.26;26.35
79589;BME280;69067;51.930;4.492;2023-06-14T13:12:03;101641.00;;;28.42;26.47
79589;BME280;69067;51.930;4.492;2023-06-14T13:14:30;101654.72;;;28.35;26.16
79589;BME280;69067;51.930;4.492;2023-06-14T13:16:56;101653.91;;;28.35;25.65